Time;durP1;ratioP1;P1;durP2;ratioP2;P2;SDS_P1;SDS_P2;PMS_P1;PMS_P2;Temp;Humidity;BMP_temperature;BMP_pressure;BME280_temperature;BME280_humidity;BME280_pressure;Samples;Min_cycle;Max_cycle;Signal;HPM_P1;HPM_P2
2023/03/05 00:01:56;;;;;;;;;;;;;;;7.35;68.78;102310.75;5045447;28;19932;-50
2023/03/05 00:04:22;;;;;;;;;;;;;;;7.33;69.05;102308.06;5044828;28;19955;-49
2023/03/05 00:06:47;;;;;;;;;;;;;;;7.32;68.81;102303.75;5045566;28;19936;-50
2023/03/05 00:09:13;;;;;;;;;;;;;;;7.30;68.87;102305.31;5042344;28;20027;-49
2023/03/05 00:11:38;;;;;;;;;;;;;;;7.27;68.72;102307.66;5037463;28;19921;-47
2023/03/05 00:14:05;;;;;;;;;;;;;;;7.24;69.06;102298.13;5042039;28;19960;-49
2023/03/05 00:16:30;;;;;;;;;;;;;;;7.23;69.04;102298.94;5039995;28;19964;-48
2023/03/05 00:18:57;;;;;;;;;;;;;;;7.22;68.96;102291.16;5043277;28;20424;-49
2023/03/05 00:21:29;;;;;;;;;;;;;;;7.21;69.09;102297.03;5044452;28;19978;-49
2023/03/05 00:23:55;;;;;;;;;;;;;;;7.19;69.24;102293.50;5045617;28;20039;-49
2023/03/05 00:26:22;;;;;;;;;;;;;;;7.16;69.11;102299.34;5043018;28;19925;-47
2023/03/05 00:28:51;;;;;;;;;;;;;;;7.16;69.21;102295.84;5045130;28;20320;-47
2023/03/05 00:31:17;;;;;;;;;;;;;;;7.13;69.07;102286.31;5025216;28;19925;-49
2023/03/05 00:33:42;;;;;;;;;;;;;;;7.12;69.29;102288.78;5044851;28;20043;-48
2023/03/05 00:36:08;;;;;;;;;;;;;;;7.10;69.36;102288.69;5042371;28;20353;-46
2023/03/05 00:38:34;;;;;;;;;;;;;;;7.10;69.39;102278.47;5044276;28;20392;-46
2023/03/05 00:40:59;;;;;;;;;;;;;;;7.09;69.33;102286.91;5044252;28;19928;-47
2023/03/05 00:43:24;;;;;;;;;;;;;;;7.07;69.53;102285.03;5042961;28;20051;-49
2023/03/05 00:45:50;;;;;;;;;;;;;;;7.05;69.68;102279.84;5042774;28;20335;-48
2023/03/05 00:48:15;;;;;;;;;;;;;;;7.05;69.51;102272.16;5042463;28;19960;-49
2023/03/05 00:50:40;;;;;;;;;;;;;;;7.04;69.55;102270.41;5042227;28;19925;-47
2023/03/05 00:53:05;;;;;;;;;;;;;;;7.04;69.59;102272.03;5045375;28;19921;-48
2023/03/05 00:55:31;;;;;;;;;;;;;;;7.03;69.89;102268.59;5042164;28;20018;-46
2023/03/05 00:57:56;;;;;;;;;;;;;;;7.04;69.80;102267.84;5047173;28;19921;-49
2023/03/05 01:00:21;;;;;;;;;;;;;;;7.02;69.49;102266.84;5047161;28;20384;-48
2023/03/05 01:02:47;;;;;;;;;;;;;;;7.01;69.73;102266.75;5045607;28;19956;-47
2023/03/05 01:05:13;;;;;;;;;;;;;;;6.98;69.88;102263.22;5046888;28;20007;-46
2023/03/05 01:07:38;;;;;;;;;;;;;;;6.98;69.68;102260.66;5048825;28;19917;-50
2023/03/05 01:10:04;;;;;;;;;;;;;;;6.98;69.81;102260.66;5045497;28;20259;-49
2023/03/05 01:12:29;;;;;;;;;;;;;;;6.99;69.95;102253.88;5044893;28;19921;-47
2023/03/05 01:14:54;;;;;;;;;;;;;;;7.01;70.02;102251.41;5040535;28;19948;-48
2023/03/05 01:17:20;;;;;;;;;;;;;;;6.99;69.76;102243.63;5051698;28;19974;-45
2023/03/05 01:19:45;;;;;;;;;;;;;;;7.01;69.93;102241.16;5053712;28;19929;-48
2023/03/05 01:22:10;;;;;;;;;;;;;;;6.98;70.00;102237.66;5049005;28;19925;-48
2023/03/05 01:24:35;;;;;;;;;;;;;;;6.99;70.13;102241.09;5048500;28;20015;-46
2023/03/05 01:27:01;;;;;;;;;;;;;;;6.96;70.02;102234.09;5050868;28;20012;-46
2023/03/05 01:29:27;;;;;;;;;;;;;;;6.99;70.03;102228.28;5051498;28;19960;-49
2023/03/05 01:31:52;;;;;;;;;;;;;;;6.97;70.27;102224.72;5050468;28;19927;-48
2023/03/05 01:34:17;;;;;;;;;;;;;;;6.97;70.28;102215.38;5049099;28;20336;-49
2023/03/05 01:36:42;;;;;;;;;;;;;;;6.96;69.99;102222.97;5050133;28;19965;-49
2023/03/05 01:39:08;;;;;;;;;;;;;;;6.95;70.44;102218.66;5047567;28;19935;-49
2023/03/05 01:41:33;;;;;;;;;;;;;;;6.95;70.42;102216.09;5048495;28;19929;-50
2023/03/05 01:43:58;;;;;;;;;;;;;;;6.95;70.21;102208.41;5057818;28;19920;-46
2023/03/05 01:46:26;;;;;;;;;;;;;;;6.94;70.44;102204.97;5048307;28;19968;-48
2023/03/05 01:48:54;;;;;;;;;;;;;;;6.93;70.61;102197.22;5056798;28;19925;-47
2023/03/05 01:51:21;;;;;;;;;;;;;;;6.92;70.69;102204.00;5050015;28;19989;-49
2023/03/05 01:53:46;;;;;;;;;;;;;;;6.93;70.29;102197.22;5055685;28;19924;-49
2023/03/05 01:56:12;;;;;;;;;;;;;;;6.92;70.54;102185.22;5043141;28;20653;-47
2023/03/05 01:58:38;;;;;;;;;;;;;;;6.91;70.64;102183.44;5021374;28;22206;-49
2023/03/05 02:01:04;;;;;;;;;;;;;;;6.89;70.72;102185.91;5045550;28;19925;-49
2023/03/05 02:03:30;;;;;;;;;;;;;;;6.89;70.38;102177.34;5048330;28;19913;-49
2023/03/05 02:05:56;;;;;;;;;;;;;;;6.87;70.46;102177.25;5044096;28;19931;-48
2023/03/05 02:08:21;;;;;;;;;;;;;;;6.85;70.57;102168.56;5047206;28;19997;-48
2023/03/05 02:10:50;;;;;;;;;;;;;;;6.85;70.32;102166.03;5048954;28;19913;-48
2023/03/05 02:13:17;;;;;;;;;;;;;;;6.87;70.74;102163.59;5043404;28;19925;-53
2023/03/05 02:15:42;;;;;;;;;;;;;;;6.84;70.77;102161.69;5048074;28;20377;-53
2023/03/05 02:18:08;;;;;;;;;;;;;;;6.86;70.55;102157.59;5047504;28;19997;-53
2023/03/05 02:20:48;;;;;;;;;;;;;;;6.83;70.74;102162.50;5046620;28;20370;-52
2023/03/05 02:23:13;;;;;;;;;;;;;;;6.83;70.73;102156.50;5046567;28;20030;-50
2023/03/05 02:25:38;;;;;;;;;;;;;;;6.82;70.48;102150.50;5048434;28;20065;-52
2023/03/05 02:28:10;;;;;;;;;;;;;;;6.79;70.46;102147.72;5046105;28;19917;-47
2023/03/05 02:30:37;;;;;;;;;;;;;;;6.78;70.81;102143.41;5044992;28;20012;-50
2023/03/05 02:33:02;;;;;;;;;;;;;;;6.77;70.66;102133.97;5052224;28;20115;-48
2023/03/05 02:35:27;;;;;;;;;;;;;;;6.79;70.54;102144.28;5050874;28;20035;-48
2023/03/05 02:37:53;;;;;;;;;;;;;;;6.77;70.80;102133.97;5049377;28;20364;-49
2023/03/05 02:40:18;;;;;;;;;;;;;;;6.76;70.72;102137.31;5053650;28;19932;-47
2023/03/05 02:42:44;;;;;;;;;;;;;;;6.76;70.74;102134.78;5050246;28;19921;-46
2023/03/05 02:45:10;;;;;;;;;;;;;;;6.76;70.68;102136.44;5036204;28;19916;-49
2023/03/05 02:47:35;;;;;;;;;;;;;;;6.74;70.80;102123.56;5051075;28;20378;-48
2023/03/05 02:50:00;;;;;;;;;;;;;;;6.74;70.90;102123.56;5057360;28;19932;-48
2023/03/05 02:52:27;;;;;;;;;;;;;;;6.70;71.34;102116.50;5044975;28;19990;-45
2023/03/05 02:54:52;;;;;;;;;;;;;;;6.72;71.23;102120.03;5048453;28;19921;-48
2023/03/05 02:57:18;;;;;;;;;;;;;;;6.68;71.07;102116.41;5050822;28;19920;-49
2023/03/05 02:59:44;;;;;;;;;;;;;;;6.66;71.07;102106.84;5047322;28;20021;-48
2023/03/05 03:02:09;;;;;;;;;;;;;;;6.64;71.20;102106.75;5053801;28;19917;-49
2023/03/05 03:04:34;;;;;;;;;;;;;;;6.62;71.41;102100.69;5051089;28;19932;-48
2023/03/05 03:07:00;;;;;;;;;;;;;;;6.61;71.29;102090.34;5045830;28;20006;-51
2023/03/05 03:09:26;;;;;;;;;;;;;;;6.60;71.48;102088.56;5053188;28;19931;-49
2023/03/05 03:11:52;;;;;;;;;;;;;;;6.60;71.08;102088.56;5048016;28;19936;-46
2023/03/05 03:14:17;;;;;;;;;;;;;;;6.58;71.08;102083.38;5051543;28;19925;-49
2023/03/05 03:16:42;;;;;;;;;;;;;;;6.56;71.22;102081.50;5033688;28;19932;-50
2023/03/05 03:19:07;;;;;;;;;;;;;;;6.55;71.02;102074.59;5047693;28;20293;-50
2023/03/05 03:21:33;;;;;;;;;;;;;;;6.52;71.25;102069.31;5047945;28;19929;-49
2023/03/05 03:23:58;;;;;;;;;;;;;;;6.50;71.38;102065.78;5046457;28;20669;-50
2023/03/05 03:26:23;;;;;;;;;;;;;;;6.47;71.34;102058.81;5049553;28;19932;-47
2023/03/05 03:28:48;;;;;;;;;;;;;;;6.47;71.23;102068.13;5031037;28;21003;-46
2023/03/05 03:31:14;;;;;;;;;;;;;;;6.43;71.29;102067.97;5049538;28;19921;-46
2023/03/05 03:33:39;;;;;;;;;;;;;;;6.41;71.34;102069.50;5052173;28;20436;-48
2023/03/05 03:36:04;;;;;;;;;;;;;;;6.42;71.56;102073.81;5046297;28;19929;-49
2023/03/05 03:38:30;;;;;;;;;;;;;;;6.42;71.65;102068.72;5048906;28;19921;-48
2023/03/05 03:40:55;;;;;;;;;;;;;;;6.41;71.45;102063.50;5047655;28;19926;-46
2023/03/05 03:43:20;;;;;;;;;;;;;;;6.37;71.78;102059.91;5046781;28;20309;-50
2023/03/05 03:45:45;;;;;;;;;;;;;;;6.37;72.41;102059.91;5050343;28;20033;-48
2023/03/05 03:48:11;;;;;;;;;;;;;;;6.35;71.97;102063.13;5048519;28;19925;-50
2023/03/05 03:50:40;;;;;;;;;;;;;;;6.33;72.75;102050.25;5054190;28;20365;-48
2023/03/05 03:53:05;;;;;;;;;;;;;;;6.31;72.21;102050.94;5050140;28;19974;-49
2023/03/05 03:55:30;;;;;;;;;;;;;;;6.30;72.17;102049.16;5049552;28;19924;-48
2023/03/05 03:57:56;;;;;;;;;;;;;;;6.29;72.36;102037.19;5049242;28;20381;-49
2023/03/05 04:00:21;;;;;;;;;;;;;;;6.29;72.38;102053.41;5047242;28;19921;-48
2023/03/05 04:02:46;;;;;;;;;;;;;;;6.26;72.94;102045.56;5047574;28;19932;-48
2023/03/05 04:05:12;;;;;;;;;;;;;;;6.24;72.72;102043.66;5048451;28;19917;-48
2023/03/05 04:07:37;;;;;;;;;;;;;;;6.25;72.50;102047.97;5028317;28;19929;-45
2023/03/05 04:10:02;;;;;;;;;;;;;;;6.24;72.54;102039.44;5043923;28;19952;-49
2023/03/05 04:12:28;;;;;;;;;;;;;;;6.25;72.79;102038.69;5047275;28;19975;-48
2023/03/05 04:14:53;;;;;;;;;;;;;;;6.26;72.49;102027.66;5049883;28;19956;-50
2023/03/05 04:17:18;;;;;;;;;;;;;;;6.25;72.60;102023.34;5048185;28;19975;-46
2023/03/05 04:19:43;;;;;;;;;;;;;;;6.26;73.21;102025.13;5046415;28;19947;-49
2023/03/05 04:22:10;;;;;;;;;;;;;;;6.25;72.91;102013.13;5048839;28;20320;-47
2023/03/05 04:24:35;;;;;;;;;;;;;;;6.26;72.61;102025.13;5048240;28;20374;-50
2023/03/05 04:27:00;;;;;;;;;;;;;;;6.24;72.67;102016.44;5047353;28;19955;-49
2023/03/05 04:29:26;;;;;;;;;;;;;;;6.26;72.59;102014.03;5048084;28;19921;-49
2023/03/05 04:31:51;;;;;;;;;;;;;;;6.26;72.68;102007.25;5048866;28;19921;-48
2023/03/05 04:34:16;;;;;;;;;;;;;;;6.26;72.83;102011.47;5045015;28;19935;-49
2023/03/05 04:36:41;;;;;;;;;;;;;;;6.25;72.74;102008.03;5047684;28;20290;-48
2023/03/05 04:39:07;;;;;;;;;;;;;;;6.24;72.64;102003.69;5046323;28;20285;-48
2023/03/05 04:41:32;;;;;;;;;;;;;;;6.26;72.77;102001.25;5046064;28;19964;-49
2023/03/05 04:43:57;;;;;;;;;;;;;;;6.28;72.63;102007.31;5046313;28;20389;-50
2023/03/05 04:46:22;;;;;;;;;;;;;;;6.23;72.48;101996.81;5045955;28;19979;-49
2023/03/05 04:48:48;;;;;;;;;;;;;;;6.23;72.60;102001.91;5045171;28;19936;-50
2023/03/05 04:51:13;;;;;;;;;;;;;;;6.23;72.28;101999.38;5046636;28;20401;-50
2023/03/05 04:53:38;;;;;;;;;;;;;;;6.22;72.75;102001.84;5046636;28;19927;-48
2023/03/05 04:56:04;;;;;;;;;;;;;;;6.22;72.86;101994.16;5047743;28;20616;-49
2023/03/05 04:58:29;;;;;;;;;;;;;;;6.21;72.62;101993.28;5046581;28;20328;-46
2023/03/05 05:00:59;;;;;;;;;;;;;;;6.23;72.63;101993.38;5045905;28;19928;-47
2023/03/05 05:03:24;;;;;;;;;;;;;;;6.24;72.70;101985.81;5045518;28;19920;-50
2023/03/05 05:05:53;;;;;;;;;;;;;;;6.23;72.88;101986.59;5049201;28;19925;-48
2023/03/05 05:08:18;;;;;;;;;;;;;;;6.24;72.68;101985.81;5047997;28;19916;-50
2023/03/05 05:10:43;;;;;;;;;;;;;;;6.22;72.79;101986.50;5047355;28;19928;-46
2023/03/05 05:13:08;;;;;;;;;;;;;;;6.17;72.95;101981.09;5042107;28;19920;-46
2023/03/05 05:15:34;;;;;;;;;;;;;;;6.15;72.91;101978.47;5046017;28;20012;-47
2023/03/05 05:17:59;;;;;;;;;;;;;;;6.15;73.12;101973.34;5048182;28;19971;-48
2023/03/05 05:20:24;;;;;;;;;;;;;;;6.14;72.54;101974.16;5045887;28;19928;-50
2023/03/05 05:22:49;;;;;;;;;;;;;;;6.12;72.84;101970.59;5046815;28;19929;-49
2023/03/05 05:25:15;;;;;;;;;;;;;;;6.12;73.03;101972.25;5047367;28;19927;-46
2023/03/05 05:27:40;;;;;;;;;;;;;;;6.14;72.88;101974.16;5045698;28;19983;-50
2023/03/05 05:30:06;;;;;;;;;;;;;;;6.13;72.95;101966.38;5027947;28;20447;-48
2023/03/05 05:32:31;;;;;;;;;;;;;;;6.12;73.02;101969.69;5043305;28;20436;-47
2023/03/05 05:34:57;;;;;;;;;;;;;;;6.10;73.15;101968.72;5042518;28;19960;-50
2023/03/05 05:37:23;;;;;;;;;;;;;;;6.10;73.03;101972.16;5046931;28;19920;-47
2023/03/05 05:39:49;;;;;;;;;;;;;;;6.10;73.19;101955.97;5045656;28;19916;-49
2023/03/05 05:42:18;;;;;;;;;;;;;;;6.13;73.04;101969.81;5046811;28;20366;-50
2023/03/05 05:44:44;;;;;;;;;;;;;;;6.12;73.29;101960.38;5042840;28;19929;-48
2023/03/05 05:47:09;;;;;;;;;;;;;;;6.14;73.17;101957.94;5045065;28;20433;-49
2023/03/05 05:49:34;;;;;;;;;;;;;;;6.13;73.15;101957.06;5030073;28;19920;-50
2023/03/05 05:52:00;;;;;;;;;;;;;;;6.12;73.18;101954.38;5047038;28;19923;-46
2023/03/05 05:54:25;;;;;;;;;;;;;;;6.11;73.34;101952.63;5037889;28;20098;-56
2023/03/05 05:56:50;;;;;;;;;;;;;;;6.11;73.25;101947.50;5044727;28;20033;-52
2023/03/05 05:59:16;;;;;;;;;;;;;;;6.11;73.41;101952.63;5046356;28;20297;-49
2023/03/05 06:01:41;;;;;;;;;;;;;;;6.13;73.63;101961.28;5044369;28;19921;-49
2023/03/05 06:04:06;;;;;;;;;;;;;;;6.12;73.97;101962.03;5047517;28;19944;-48
2023/03/05 06:06:33;;;;;;;;;;;;;;;6.12;74.04;101956.94;5044819;28;19972;-50
2023/03/05 06:08:59;;;;;;;;;;;;;;;6.13;74.13;101964.72;5045337;28;20284;-50
2023/03/05 06:11:24;;;;;;;;;;;;;;;6.14;74.17;101951.16;5045012;28;19920;-48
2023/03/05 06:13:49;;;;;;;;;;;;;;;6.14;74.30;101955.38;5045921;28;19990;-50
2023/03/05 06:16:16;;;;;;;;;;;;;;;6.12;74.58;101941.63;5044942;28;19929;-50
2023/03/05 06:18:42;;;;;;;;;;;;;;;6.10;74.86;101941.53;5048188;28;19921;-50
2023/03/05 06:21:11;;;;;;;;;;;;;;;6.10;74.70;101941.53;5047985;28;19944;-48
2023/03/05 06:23:36;;;;;;;;;;;;;;;6.12;75.03;101941.63;5048432;28;20054;-50
2023/03/05 06:26:03;;;;;;;;;;;;;;;6.12;75.10;101934.84;5044881;28;19936;-49
2023/03/05 06:28:29;;;;;;;;;;;;;;;6.12;75.18;101932.28;5048143;28;20385;-47
2023/03/05 06:31:03;;;;;;;;;;;;;;;6.12;75.02;101945.03;5049409;28;19925;-47
2023/03/05 06:33:29;;;;;;;;;;;;;;;6.10;75.00;101938.09;5049723;28;19924;-46
2023/03/05 06:35:54;;;;;;;;;;;;;;;6.06;75.68;101933.56;5045746;28;19932;-45
2023/03/05 06:38:19;;;;;;;;;;;;;;;6.07;76.01;101931.13;5044443;28;19924;-49
2023/03/05 06:40:44;;;;;;;;;;;;;;;6.08;75.61;101934.56;5048567;28;20447;-48
2023/03/05 06:43:10;;;;;;;;;;;;;;;6.07;75.86;101935.34;5053172;28;20407;-49
2023/03/05 06:45:35;;;;;;;;;;;;;;;6.05;75.74;101934.34;5048545;28;20293;-47
2023/03/05 06:48:00;;;;;;;;;;;;;;;6.06;75.59;101933.56;5044804;28;20297;-47
2023/03/05 06:50:26;;;;;;;;;;;;;;;6.07;75.78;101940.47;5049156;28;19928;-48
2023/03/05 06:52:51;;;;;;;;;;;;;;;6.06;76.13;101933.56;5050256;28;20018;-52
2023/03/05 06:55:17;;;;;;;;;;;;;;;6.06;75.84;101933.56;5046080;28;19928;-48
2023/03/05 06:57:42;;;;;;;;;;;;;;;6.07;76.16;101935.34;5051119;28;19927;-48
2023/03/05 07:00:08;;;;;;;;;;;;;;;6.05;76.39;101929.25;5047611;28;19925;-46
2023/03/05 07:02:35;;;;;;;;;;;;;;;6.06;76.72;101925.91;5048356;28;20436;-47
2023/03/05 07:05:00;;;;;;;;;;;;;;;6.06;76.55;101928.47;5051337;28;20034;-50
2023/03/05 07:07:26;;;;;;;;;;;;;;;6.03;76.82;101931.72;5051927;28;19941;-46
2023/03/05 07:09:52;;;;;;;;;;;;;;;6.04;76.67;101936.03;5050454;28;19921;-46
2023/03/05 07:12:17;;;;;;;;;;;;;;;6.06;77.11;101938.66;5051469;28;19927;-47
2023/03/05 07:14:43;;;;;;;;;;;;;;;6.05;76.92;101936.91;5050706;28;19929;-48
2023/03/05 07:17:08;;;;;;;;;;;;;;;6.06;77.51;101937.00;5046194;28;19924;-46
2023/03/05 07:19:33;;;;;;;;;;;;;;;6.05;77.37;101932.69;5043375;28;20298;-49
2023/03/05 07:21:58;;;;;;;;;;;;;;;6.06;77.56;101928.47;5050592;28;19924;-45
2023/03/05 07:24:28;;;;;;;;;;;;;;;6.09;77.54;101921.00;5051673;28;20015;-50
2023/03/05 07:26:54;;;;;;;;;;;;;;;6.10;78.06;101925.31;5055830;28;19924;-47
2023/03/05 07:29:19;;;;;;;;;;;;;;;6.10;77.63;101921.09;5047439;28;19923;-50
2023/03/05 07:31:44;;;;;;;;;;;;;;;6.10;78.04;101923.66;5053652;28;19943;-48
2023/03/05 07:34:10;;;;;;;;;;;;;;;6.13;78.20;101920.44;5049636;28;19920;-49
2023/03/05 07:36:36;;;;;;;;;;;;;;;6.16;77.83;101916.38;5050275;28;19917;-46
2023/03/05 07:39:03;;;;;;;;;;;;;;;6.20;78.10;101922.56;5055412;28;20606;-47
2023/03/05 07:41:29;;;;;;;;;;;;;;;6.21;78.10;101926.00;5054322;28;19927;-50
2023/03/05 07:43:54;;;;;;;;;;;;;;;6.22;77.83;101922.66;5051196;28;19917;-50
2023/03/05 07:46:21;;;;;;;;;;;;;;;6.23;78.30;101922.75;5051284;28;19931;-50
2023/03/05 07:48:46;;;;;;;;;;;;;;;6.25;78.13;101920.28;5054519;28;20007;-49
2023/03/05 07:51:16;;;;;;;;;;;;;;;6.24;78.20;101919.41;5046167;28;20444;-50
2023/03/05 07:53:41;;;;;;;;;;;;;;;6.23;78.69;101920.19;5050822;28;20361;-50
2023/03/05 07:56:07;;;;;;;;;;;;;;;6.24;78.49;101910.84;5053681;28;19924;-49
2023/03/05 07:58:32;;;;;;;;;;;;;;;6.26;78.34;101909.31;5050482;28;19948;-50
2023/03/05 08:00:57;;;;;;;;;;;;;;;6.29;78.34;101914.59;5050028;28;19928;-49
2023/03/05 08:03:22;;;;;;;;;;;;;;;6.31;78.43;101915.56;5031395;28;19996;-51
2023/03/05 08:05:48;;;;;;;;;;;;;;;6.31;78.55;101911.34;5035857;28;19928;-50
2023/03/05 08:08:13;;;;;;;;;;;;;;;6.33;78.58;101909.75;5045643;28;19937;-47
2023/03/05 08:10:38;;;;;;;;;;;;;;;6.33;78.36;101904.66;5049564;28;20656;-47
2023/03/05 08:13:04;;;;;;;;;;;;;;;6.34;78.31;101903.88;5049611;28;19928;-48
2023/03/05 08:15:30;;;;;;;;;;;;;;;6.35;78.69;101905.63;5051693;28;19929;-49
2023/03/05 08:17:56;;;;;;;;;;;;;;;6.35;78.47;101900.50;5050199;28;20003;-50
2023/03/05 08:20:21;;;;;;;;;;;;;;;6.37;78.50;101896.41;5050565;28;20015;-48
2023/03/05 08:22:46;;;;;;;;;;;;;;;6.37;78.39;101893.84;5048568;28;19929;-50
2023/03/05 08:25:12;;;;;;;;;;;;;;;6.38;78.67;101893.06;5050441;28;19971;-48
2023/03/05 08:27:38;;;;;;;;;;;;;;;6.43;78.71;101898.41;5035023;28;19921;-48
2023/03/05 08:30:04;;;;;;;;;;;;;;;6.46;78.68;101896.06;5048857;28;19928;-47
2023/03/05 08:32:29;;;;;;;;;;;;;;;6.53;79.03;101887.97;5047995;28;19920;-48
2023/03/05 08:34:57;;;;;;;;;;;;;;;6.57;78.88;101889.06;5050723;28;19928;-48
2023/03/05 08:37:22;;;;;;;;;;;;;;;6.62;79.00;101888.56;5050576;28;19916;-49
2023/03/05 08:39:47;;;;;;;;;;;;;;;6.69;78.90;101880.44;5050187;28;19931;-48
2023/03/05 08:42:12;;;;;;;;;;;;;;;6.77;78.81;101880.91;5053540;28;19920;-48
2023/03/05 08:44:38;;;;;;;;;;;;;;;6.83;78.30;101878.72;5053858;28;19920;-51
2023/03/05 08:47:03;;;;;;;;;;;;;;;6.90;78.18;101870.59;5051130;28;19925;-49
2023/03/05 08:49:28;;;;;;;;;;;;;;;6.95;77.79;101869.19;5049762;28;19921;-48
2023/03/05 08:51:53;;;;;;;;;;;;;;;6.98;77.71;101866.84;5055121;28;20326;-48
2023/03/05 08:54:19;;;;;;;;;;;;;;;7.01;77.60;101867.81;5048974;28;19924;-49
2023/03/05 08:56:44;;;;;;;;;;;;;;;7.04;77.71;101865.41;5048567;28;20317;-50
2023/03/05 08:59:10;;;;;;;;;;;;;;;7.07;77.42;101866.47;5049274;28;19916;-48
2023/03/05 09:01:35;;;;;;;;;;;;;;;7.09;76.80;101866.56;5052765;28;19924;-49
2023/03/05 09:04:00;;;;;;;;;;;;;;;7.11;77.03;101859.88;5050490;28;19975;-47
2023/03/05 09:06:26;;;;;;;;;;;;;;;7.14;76.71;101862.59;5049399;28;20069;-48
2023/03/05 09:08:52;;;;;;;;;;;;;;;7.15;76.64;101854.13;5056018;28;19921;-48
2023/03/05 09:11:17;;;;;;;;;;;;;;;7.13;76.52;101851.50;5052783;28;19927;-50
2023/03/05 09:13:42;;;;;;;;;;;;;;;7.14;76.32;101848.13;5050601;28;20381;-47
2023/03/05 09:16:10;;;;;;;;;;;;;;;7.12;76.72;101856.53;5049280;28;19917;-48
2023/03/05 09:18:35;;;;;;;;;;;;;;;7.12;76.67;101854.84;5048964;28;20053;-54
2023/03/05 09:21:04;;;;;;;;;;;;;;;7.15;76.94;101851.56;5045194;28;20046;-50
2023/03/05 09:23:29;;;;;;;;;;;;;;;7.18;76.88;101847.53;5041395;28;20444;-53
2023/03/05 09:25:55;;;;;;;;;;;;;;;7.24;76.73;101852.13;5047972;28;19924;-50
2023/03/05 09:28:20;;;;;;;;;;;;;;;7.27;76.65;101842.03;5044232;28;19937;-57
2023/03/05 09:30:46;;;;;;;;;;;;;;;7.30;76.42;101837.13;5047330;28;19931;-50
2023/03/05 09:33:11;;;;;;;;;;;;;;;7.33;75.32;101841.50;5046494;28;19943;-51
2023/03/05 09:35:36;;;;;;;;;;;;;;;7.31;75.48;101838.88;5048385;28;19932;-51
2023/03/05 09:38:02;;;;;;;;;;;;;;;7.32;75.30;101832.94;5046089;28;20380;-51
2023/03/05 09:40:36;;;;;;;;;;;;;;;7.35;75.51;101835.69;5049589;28;19924;-49
2023/03/05 09:43:06;;;;;;;;;;;;;;;7.36;75.18;101836.59;5051153;28;20305;-50
2023/03/05 09:45:51;;;;;;;;;;;;;;;7.35;74.98;101824.59;5040598;28;19965;-49
2023/03/05 09:48:19;;;;;;;;;;;;;;;7.34;75.02;101822.78;5047842;28;19917;-51
2023/03/05 09:50:51;;;;;;;;;;;;;;;7.35;74.89;101829.72;5050191;28;20428;-48
2023/03/05 09:53:16;;;;;;;;;;;;;;;7.34;74.72;101826.28;5050460;28;20348;-50
2023/03/05 09:55:44;;;;;;;;;;;;;;;7.38;74.47;101830.75;5048193;28;20322;-50
2023/03/05 09:58:16;;;;;;;;;;;;;;;7.39;74.61;101823.94;5048111;28;19916;-52
2023/03/05 10:00:46;;;;;;;;;;;;;;;7.42;74.53;101816.44;5046086;28;19956;-48
2023/03/05 10:03:15;;;;;;;;;;;;;;;7.45;74.31;101820.03;5049957;28;20414;-54
2023/03/05 10:05:44;;;;;;;;;;;;;;;7.47;74.28;101813.34;5045142;28;19921;-54
2023/03/05 10:08:10;;;;;;;;;;;;;;;7.50;74.02;101810.94;5047648;28;20258;-54
2023/03/05 10:10:43;;;;;;;;;;;;;;;7.53;74.16;101810.25;5047825;28;19924;-54
2023/03/05 10:13:21;;;;;;;;;;;;;;;7.48;73.50;101817.69;5047124;28;20382;-53
2023/03/05 10:16:05;;;;;;;;;;;;;;;7.48;73.23;101802.31;5041641;28;20397;-53
2023/03/05 10:18:41;;;;;;;;;;;;;;;7.49;73.55;101803.19;5044828;28;19920;-53
2023/03/05 10:21:29;;;;;;;;;;;;;;;7.51;73.77;101796.47;5043656;28;20296;-55
2023/03/05 10:23:59;;;;;;;;;;;;;;;7.52;73.17;101795.66;5047301;28;20373;-53
2023/03/05 10:26:29;;;;;;;;;;;;;;;7.50;72.82;101795.59;5044936;28;19931;-53
2023/03/05 10:28:55;;;;;;;;;;;;;;;7.51;73.16;101796.47;5041396;28;19921;-52
2023/03/05 10:31:36;;;;;;;;;;;;;;;7.51;73.24;101789.69;5049287;28;19920;-52
2023/03/05 10:34:21;;;;;;;;;;;;;;;7.52;73.52;101785.44;5033226;28;20032;-53
2023/03/05 10:36:54;;;;;;;;;;;;;;;7.51;74.00;101794.78;5043591;28;19929;-53
2023/03/05 10:39:25;;;;;;;;;;;;;;;7.51;74.45;101786.25;5041952;28;20003;-54
2023/03/05 10:41:55;;;;;;;;;;;;;;;7.52;74.85;101786.34;5035193;28;19925;-53
2023/03/05 10:44:25;;;;;;;;;;;;;;;7.55;74.55;101784.75;5037047;28;19927;-53
2023/03/05 10:46:50;;;;;;;;;;;;;;;7.59;74.86;101781.56;5033800;28;19924;-52
2023/03/05 10:49:21;;;;;;;;;;;;;;;7.60;73.98;101771.41;5016267;28;20278;-50
2023/03/05 10:51:50;;;;;;;;;;;;;;;7.62;74.07;101774.03;5042692;28;20008;-51
2023/03/05 10:54:18;;;;;;;;;;;;;;;7.66;73.69;101775.97;5044654;28;20393;-52
2023/03/05 10:56:44;;;;;;;;;;;;;;;7.70;73.94;101768.53;5045966;28;20424;-52
2023/03/05 10:59:09;;;;;;;;;;;;;;;7.74;74.11;101761.91;5044564;28;19960;-52
2023/03/05 11:01:36;;;;;;;;;;;;;;;7.80;74.33;101759.66;5048848;28;19985;-52
2023/03/05 11:04:06;;;;;;;;;;;;;;;7.86;74.08;101756.56;5052559;28;20393;-52
2023/03/05 11:06:36;;;;;;;;;;;;;;;7.86;73.16;101752.31;5044586;28;19979;-53
2023/03/05 11:09:13;;;;;;;;;;;;;;;7.88;73.11;101757.50;5051971;28;19932;-52
2023/03/05 11:11:38;;;;;;;;;;;;;;;7.87;73.11;101754.06;5051918;28;19947;-52
2023/03/05 11:14:04;;;;;;;;;;;;;;;7.91;73.01;101745.75;5052516;28;19928;-52
2023/03/05 11:16:33;;;;;;;;;;;;;;;7.94;72.57;101738.22;5051909;28;20389;-52
2023/03/05 11:19:28;;;;;;;;;;;;;;;7.95;72.11;101729.75;5054261;28;20289;-52
2023/03/05 11:22:09;;;;;;;;;;;;;;;7.92;71.32;101732.16;5046385;28;20012;-52
2023/03/05 11:24:35;;;;;;;;;;;;;;;7.91;71.23;101721.84;5056926;28;19924;-53
2023/03/05 11:27:00;;;;;;;;;;;;;;;7.95;71.54;101722.09;5055355;28;20277;-53
2023/03/05 11:29:29;;;;;;;;;;;;;;;7.94;71.12;101722.84;5051386;28;19916;-53
2023/03/05 11:31:55;;;;;;;;;;;;;;;7.98;70.94;101721.34;5053507;28;19932;-53
2023/03/05 11:34:29;;;;;;;;;;;;;;;7.98;70.80;101719.66;5055858;28;19920;-48
2023/03/05 11:36:57;;;;;;;;;;;;;;;7.98;69.81;101711.97;5056779;28;19925;-48
2023/03/05 11:39:23;;;;;;;;;;;;;;;8.00;70.07;101719.72;5057816;28;19928;-49
2023/03/05 11:41:50;;;;;;;;;;;;;;;8.02;70.31;101713.91;5055974;28;19921;-50
2023/03/05 11:44:23;;;;;;;;;;;;;;;8.10;70.27;101713.41;5053931;28;19962;-50
2023/03/05 11:46:55;;;;;;;;;;;;;;;8.19;69.73;101708.75;5059824;28;19925;-50
2023/03/05 11:49:24;;;;;;;;;;;;;;;8.26;69.23;101709.16;5054662;28;19917;-50
2023/03/05 11:51:58;;;;;;;;;;;;;;;8.26;69.18;101698.91;5056101;28;19924;-50
2023/03/05 11:54:28;;;;;;;;;;;;;;;8.30;68.59;101698.25;5048437;28;19916;-47
2023/03/05 11:56:54;;;;;;;;;;;;;;;8.30;68.05;101694.81;5054098;28;20289;-50
2023/03/05 11:59:24;;;;;;;;;;;;;;;8.30;68.31;101690.56;5048651;28;19931;-49
2023/03/05 12:01:52;;;;;;;;;;;;;;;8.26;67.11;101687.78;5051012;28;19917;-51
2023/03/05 12:04:21;;;;;;;;;;;;;;;8.25;68.27;101686.91;5048983;28;20062;-50
2023/03/05 12:06:50;;;;;;;;;;;;;;;8.28;67.85;101674.25;5050219;28;19921;-49
2023/03/05 12:09:36;;;;;;;;;;;;;;;8.30;67.31;101676.88;5051343;28;20297;-49
2023/03/05 12:12:22;;;;;;;;;;;;;;;8.29;66.64;101667.44;5044284;28;20004;-48
2023/03/05 12:14:50;;;;;;;;;;;;;;;8.28;66.74;101660.56;5006273;28;19924;-43
2023/03/05 12:17:32;;;;;;;;;;;;;;;8.30;66.87;101653.81;5051431;28;20397;-46
2023/03/05 12:20:16;;;;;;;;;;;;;;;8.34;67.18;101646.34;5050879;28;20645;-50
2023/03/05 12:22:42;;;;;;;;;;;;;;;8.40;66.74;101639.81;5049831;28;19923;-50
2023/03/05 12:25:22;;;;;;;;;;;;;;;8.45;66.64;101631.53;5054601;28;19973;-49
2023/03/05 12:27:48;;;;;;;;;;;;;;;8.48;66.07;101634.25;5051070;28;19924;-49
2023/03/05 12:30:31;;;;;;;;;;;;;;;8.51;66.58;101633.53;5056910;28;19925;-50
2023/03/05 12:32:57;;;;;;;;;;;;;;;8.55;66.69;101633.75;5047455;28;19927;-47
2023/03/05 12:35:22;;;;;;;;;;;;;;;8.57;66.07;101624.44;5040116;28;20011;-50
2023/03/05 12:37:50;;;;;;;;;;;;;;;8.62;65.68;101616.13;5045514;28;19917;-50
2023/03/05 12:40:29;;;;;;;;;;;;;;;8.65;65.92;101618.81;5049821;28;20011;-47
2023/03/05 12:43:04;;;;;;;;;;;;;;;8.65;65.45;101613.69;5048807;28;19928;-51
2023/03/05 12:45:31;;;;;;;;;;;;;;;8.65;65.19;101608.56;5046869;28;20377;-51
2023/03/05 12:47:56;;;;;;;;;;;;;;;8.65;65.17;101599.16;5040263;28;20289;-51